Time;durP1;ratioP1;P1;durP2;ratioP2;P2;SDS_P1;SDS_P2;PMS_P1;PMS_P2;Temp;Humidity;BMP_temperature;BMP_pressure;BME280_temperature;BME280_humidity;BME280_pressure;Samples;Min_cycle;Max_cycle;Signal;HPM_P1;HPM_P2
2024/04/03 00:00:53;;;;;;;3.78;0.93;;;15.30;99.90;;;;;;5133035;27;20023;-61
2024/04/03 00:03:19;;;;;;;5.40;1.20;;;15.20;99.90;;;;;;5156095;27;20091;-61
2024/04/03 00:05:45;;;;;;;6.30;1.48;;;15.20;99.90;;;;;;5155948;27;20023;-61
2024/04/03 00:08:11;;;;;;;4.70;1.27;;;15.20;99.90;;;;;;5122869;27;20025;-61
2024/04/03 00:10:37;;;;;;;6.00;1.10;;;15.20;99.90;;;;;;5156028;27;20034;-61
2024/04/03 00:13:03;;;;;;;4.30;1.73;;;15.20;99.90;;;;;;5155849;27;20041;-61
2024/04/03 00:15:29;;;;;;;3.97;1.00;;;15.20;99.90;;;;;;5151628;27;20050;-61
2024/04/03 00:17:54;;;;;;;3.83;1.13;;;15.20;99.90;;;;;;5154362;27;20030;-61
2024/04/03 00:20:23;;;;;;;5.78;1.33;;;15.10;99.90;;;;;;5148537;27;20031;-61
2024/04/03 00:22:50;;;;;;;4.68;0.90;;;15.10;99.90;;;;;;5147670;27;20015;-61
2024/04/03 00:28:38;;;;;;;4.80;1.48;;;14.90;99.90;;;;;;5148148;27;20033;-61
2024/04/03 00:31:03;;;;;;;8.23;0.70;;;15.00;99.90;;;;;;5155482;27;20030;-62
2024/04/03 00:33:29;;;;;;;3.63;1.00;;;15.00;99.90;;;;;;5149013;27;20403;-61
2024/04/03 00:35:59;;;;;;;3.67;0.80;;;15.00;99.90;;;;;;5150355;27;20494;-61
2024/04/03 00:38:25;;;;;;;6.30;1.10;;;15.00;99.90;;;;;;5148538;27;20046;-62
2024/04/03 00:40:54;;;;;;;6.88;1.70;;;15.10;99.90;;;;;;5148888;27;20440;-61
2024/04/03 00:43:19;;;;;;;5.68;1.33;;;15.00;99.90;;;;;;5141115;27;20015;-62
2024/04/03 00:45:45;;;;;;;3.45;0.90;;;15.00;99.90;;;;;;5155344;27;20459;-62
2024/04/03 00:48:11;;;;;;;8.40;1.52;;;14.90;99.90;;;;;;5154012;27;20133;-62
2024/04/03 00:50:37;;;;;;;5.93;1.60;;;14.90;99.90;;;;;;5155426;27;20030;-62
2024/04/03 00:53:04;;;;;;;6.40;1.33;;;15.00;99.90;;;;;;5154483;27;20031;-62
2024/04/03 00:55:30;;;;;;;6.15;1.20;;;15.10;99.90;;;;;;5149487;27;20031;-62
2024/04/03 00:57:56;;;;;;;3.95;1.20;;;15.10;99.90;;;;;;5149128;27;20019;-62
2024/04/03 01:00:21;;;;;;;3.72;1.08;;;15.10;99.90;;;;;;5143323;27;20114;-62
2024/04/03 01:02:47;;;;;;;7.93;1.52;;;14.90;99.90;;;;;;5151385;27;20015;-62
2024/04/03 01:05:13;;;;;;;7.63;1.80;;;14.90;99.90;;;;;;5150721;27;20113;-62
2024/04/03 01:07:39;;;;;;;2.92;1.20;;;15.00;99.90;;;;;;5151012;27;20040;-62
2024/04/03 01:10:06;;;;;;;5.65;1.25;;;15.00;99.90;;;;;;5130490;27;20318;-62
2024/04/03 01:12:33;;;;;;;6.05;1.00;;;15.00;99.90;;;;;;5153622;27;20390;-62
2024/04/03 01:14:59;;;;;;;5.90;1.40;;;14.90;99.90;;;;;;5154019;27;20098;-61
2024/04/03 01:17:25;;;;;;;6.93;1.70;;;14.80;99.90;;;;;;5153674;27;20079;-61
2024/04/03 01:19:51;;;;;;;4.28;1.65;;;14.90;99.90;;;;;;5153625;27;20031;-61
2024/04/03 01:22:16;;;;;;;2.83;1.42;;;15.00;99.90;;;;;;5154842;27;20019;-62
2024/04/03 01:24:42;;;;;;;7.20;1.85;;;14.90;99.90;;;;;;5154160;27;20377;-61
2024/04/03 01:27:08;;;;;;;5.97;1.23;;;15.00;99.90;;;;;;5127939;27;20023;-61
2024/04/03 01:29:38;;;;;;;3.85;1.35;;;15.10;99.90;;;;;;5134895;27;20038;-61
2024/04/03 01:32:05;;;;;;;8.43;1.35;;;14.80;99.90;;;;;;5139353;27;20011;-60
2024/04/03 01:34:30;;;;;;;7.25;1.50;;;14.90;99.90;;;;;;5133708;27;20059;-60
2024/04/03 01:36:56;;;;;;;6.60;2.05;;;14.90;99.90;;;;;;5151027;27;20388;-60
2024/04/03 01:39:21;;;;;;;4.80;1.73;;;14.80;99.90;;;;;;5154168;27;20042;-60
2024/04/03 01:41:47;;;;;;;6.35;1.02;;;15.00;99.90;;;;;;5153787;27;20019;-61
2024/04/03 01:44:13;;;;;;;4.32;1.45;;;15.00;99.90;;;;;;5145194;27;20079;-61
2024/04/03 01:46:38;;;;;;;9.38;1.75;;;15.00;99.90;;;;;;5146675;27;20058;-62
2024/04/03 01:49:04;;;;;;;4.75;1.13;;;14.90;99.90;;;;;;5153693;27;20042;-61
2024/04/03 01:51:29;;;;;;;6.60;1.30;;;15.00;99.90;;;;;;5153738;27;20380;-61
2024/04/03 01:53:55;;;;;;;6.30;1.38;;;15.00;99.90;;;;;;5144429;27;20027;-61
2024/04/03 01:56:20;;;;;;;6.55;1.25;;;14.90;99.90;;;;;;5144480;27;20038;-61
2024/04/03 01:58:46;;;;;;;10.75;2.47;;;14.80;99.90;;;;;;5153155;27;20434;-61
2024/04/03 02:01:12;;;;;;;7.65;1.65;;;14.90;99.90;;;;;;5153064;27;20089;-61
2024/04/03 02:03:37;;;;;;;8.30;1.50;;;14.80;99.90;;;;;;5139873;27;20035;-61
2024/04/03 02:06:03;;;;;;;7.55;1.52;;;14.90;99.90;;;;;;5152210;27;20058;-61
2024/04/03 02:08:29;;;;;;;5.88;1.48;;;14.90;99.90;;;;;;5153605;27;20031;-61
2024/04/03 02:10:54;;;;;;;5.60;1.27;;;14.80;99.90;;;;;;5145110;27;20039;-61
2024/04/03 02:13:29;;;;;;;7.13;1.65;;;14.90;99.90;;;;;;5143018;27;20172;-61
2024/04/03 02:15:55;;;;;;;;;;;14.80;99.90;;;;;;5151518;27;20031;-61
2024/04/03 02:18:21;;;;;;;6.65;1.60;;;14.70;99.90;;;;;;5153767;27;20292;-61
2024/04/03 02:20:47;;;;;;;9.35;2.08;;;14.80;99.90;;;;;;5153818;27;20047;-62
2024/04/03 02:23:13;;;;;;;6.72;1.92;;;14.70;99.90;;;;;;5153366;27;20023;-61
2024/04/03 02:25:40;;;;;;;6.80;1.40;;;14.70;99.90;;;;;;5153543;27;20426;-61
2024/04/03 02:28:06;;;;;;;9.35;1.88;;;14.80;99.90;;;;;;5153646;27;20030;-61
2024/04/03 02:30:31;;;;;;;8.93;1.73;;;14.90;99.90;;;;;;5153978;27;20031;-61
2024/04/03 02:32:57;;;;;;;5.82;2.00;;;14.90;99.90;;;;;;5146743;27;20039;-61
2024/04/03 02:35:23;;;;;;;8.45;1.58;;;15.00;99.90;;;;;;5153565;27;20096;-61
2024/04/03 02:37:49;;;;;;;6.47;1.75;;;14.90;99.90;;;;;;5153695;27;20063;-61
2024/04/03 02:40:14;;;;;;;11.93;1.60;;;14.80;99.90;;;;;;5140426;27;20015;-61
2024/04/03 02:42:41;;;;;;;7.72;2.22;;;14.90;99.90;;;;;;5139327;27;20487;-61
2024/04/03 02:45:07;;;;;;;4.57;1.52;;;15.00;99.90;;;;;;5150195;27;20023;-61
2024/04/03 02:47:33;;;;;;;5.10;1.45;;;14.90;99.90;;;;;;5153783;27;20033;-61
2024/04/03 02:49:58;;;;;;;6.50;1.88;;;15.00;99.90;;;;;;5142476;27;20472;-61
2024/04/03 02:52:24;;;;;;;9.00;2.03;;;15.00;99.90;;;;;;5151895;27;20716;-61
2024/04/03 02:54:49;;;;;;;3.65;1.23;;;15.00;99.90;;;;;;5153738;27;20023;-61
2024/04/03 02:57:16;;;;;;;8.70;1.75;;;15.00;99.90;;;;;;5153458;27;20045;-62
2024/04/03 02:59:44;;;;;;;6.05;1.85;;;15.00;99.90;;;;;;5147531;27;20023;-61
2024/04/03 03:02:10;;;;;;;6.05;1.88;;;15.10;99.90;;;;;;5153054;27;20052;-61
2024/04/03 03:04:43;;;;;;;5.65;1.42;;;15.00;99.90;;;;;;5153407;27;20101;-61
2024/04/03 03:07:21;;;;;;;7.78;1.95;;;15.10;99.90;;;;;;5138891;27;20019;-61
2024/04/03 03:09:46;;;;;;;6.57;1.55;;;15.10;99.90;;;;;;5152351;27;20029;-61
2024/04/03 03:12:12;;;;;;;8.38;1.38;;;15.10;99.90;;;;;;5147953;27;20372;-61
2024/04/03 03:14:37;;;;;;;4.85;1.40;;;15.00;99.90;;;;;;5153247;27;20472;-60
2024/04/03 03:17:03;;;;;;;5.80;1.73;;;15.00;99.90;;;;;;5150914;27;20015;-60
2024/04/03 03:19:29;;;;;;;5.70;1.13;;;15.00;99.90;;;;;;5152263;27;20034;-60
2024/04/03 03:21:54;;;;;;;6.38;1.77;;;15.00;99.90;;;;;;5133382;27;20353;-61
2024/04/03 03:24:21;;;;;;;4.10;1.48;;;15.00;99.90;;;;;;5153027;27;20034;-61
2024/04/03 03:26:47;;;;;;;7.03;1.50;;;15.00;99.90;;;;;;5154750;27;20056;-61
2024/04/03 03:29:12;;;;;;;7.85;1.40;;;14.90;99.90;;;;;;5156389;27;20561;-61
2024/04/03 03:31:38;;;;;;;3.75;1.67;;;15.00;99.90;;;;;;5138542;27;20113;-61
2024/04/03 03:34:04;;;;;;;4.57;1.60;;;14.90;99.90;;;;;;5154868;27;20053;-61
2024/04/03 03:36:29;;;;;;;5.90;1.33;;;14.90;99.90;;;;;;5138235;27;20014;-61
2024/04/03 03:38:55;;;;;;;4.00;1.23;;;;;;;;;;5149756;27;20071;-61
2024/04/03 03:41:21;;;;;;;5.60;1.98;;;;;;;;;;5139483;27;20043;-61
2024/04/03 03:43:47;;;;;;;9.15;1.80;;;;;;;;;;5147187;27;20042;-61
2024/04/03 03:46:13;;;;;;;8.82;1.65;;;;;;;;;;5157061;27;20102;-61
2024/04/03 03:54:08;;;;;;;4.13;1.40;;;;;;;;;;5155574;27;20368;-61
2024/04/03 03:56:34;;;;;;;10.18;1.77;;;;;;;;;;5145993;27;20065;-61
2024/04/03 03:59:00;;;;;;;8.90;1.55;;;;;;;;;;5155183;27;20026;-61
2024/04/03 04:01:26;;;;;;;5.75;1.35;;;;;;;;;;5156704;27;20030;-61
2024/04/03 04:03:52;;;;;;;6.70;1.60;;;;;;;;;;5154437;27;20067;-62
2024/04/03 04:06:18;;;;;;;8.10;1.55;;;;;;;;;;5148904;27;20026;-61
2024/04/03 04:08:44;;;;;;;6.63;2.00;;;;;;;;;;5148369;27;20031;-61
2024/04/03 04:11:10;;;;;;;16.08;1.70;;;;;;;;;;5143087;27;20026;-61
2024/04/03 04:13:36;;;;;;;10.43;1.98;;;;;;;;;;5156357;27;20107;-61
2024/04/03 04:16:03;;;;;;;8.15;2.00;;;;;;;;;;5153679;27;20030;-61
2024/04/03 04:18:29;;;;;;;8.13;1.90;;;;;;;;;;5137629;27;20026;-61
2024/04/03 04:20:56;;;;;;;8.50;2.10;;;;;;;;;;5134687;27;20046;-62
2024/04/03 04:23:22;;;;;;;7.78;2.03;;;;;;;;;;5155561;27;20026;-61
2024/04/03 04:26:03;;;;;;;5.20;1.60;;;;;;;;;;5156073;27;20433;-61
2024/04/03 04:28:30;;;;;;;4.07;1.58;;;;;;;;;;5137087;27;20019;-61
2024/04/03 04:30:59;;;;;;;5.40;1.30;;;;;;;;;;5154168;27;20137;-61
2024/04/03 04:33:25;;;;;;;4.78;1.65;;;;;;;;;;5155868;27;20114;-62
2024/04/03 04:35:53;;;;;;;5.53;1.70;;;;;;;;;;5155627;27;20075;-62
2024/04/03 04:38:19;;;;;;;5.25;1.30;;;;;;;;;;5155593;27;20428;-62
2024/04/03 04:40:52;;;;;;;4.68;1.83;;;;;;;;;;5140611;27;20027;-61
2024/04/03 04:43:18;;;;;;;6.05;1.85;;;;;;;;;;5144956;27;20027;-61
2024/04/03 04:45:44;;;;;;;7.60;1.42;;;;;;;;;;5151887;27;20541;-61
2024/04/03 04:48:10;;;;;;;8.25;1.80;;;;;;;;;;5153064;27;20027;-61
2024/04/03 04:50:36;;;;;;;5.97;1.67;;;;;;;;;;5154623;27;20399;-61
2024/04/03 04:53:03;;;;;;;7.22;1.33;;;;;;;;;;5145868;27;20026;-61
2024/04/03 04:55:29;;;;;;;5.63;2.00;;;;;;;;;;5151981;27;20014;-62
2024/04/03 04:57:55;;;;;;;5.20;1.67;;;;;;;;;;5146185;27;20030;-62
2024/04/03 05:00:21;;;;;;;4.50;1.58;;;;;;;;;;5155685;27;20027;-61
2024/04/03 05:02:47;;;;;;;7.28;1.98;;;;;;;;;;5148412;27;20019;-61
2024/04/03 05:05:13;;;;;;;6.20;1.55;;;;;;;;;;5146986;27;20030;-61
2024/04/03 05:07:39;;;;;;;7.90;1.80;;;;;;;;;;5154557;27;20019;-61
2024/04/03 05:10:05;;;;;;;7.15;1.63;;;;;;;;;;5155205;27;20037;-61
2024/04/03 05:12:31;;;;;;;8.63;2.53;;;;;;;;;;5153348;27;20030;-61
2024/04/03 05:14:57;;;;;;;6.93;2.00;;;;;;;;;;5155165;27;20023;-61
2024/04/03 05:17:23;;;;;;;6.55;1.90;;;;;;;;;;5154197;27;20386;-62
2024/04/03 05:19:49;;;;;;;8.90;2.22;;;;;;;;;;5155295;27;20025;-62
2024/04/03 05:22:16;;;;;;;7.40;2.42;;;;;;;;;;5146905;27;21438;-61
2024/04/03 05:24:42;;;;;;;10.13;2.20;;;;;;;;;;5153872;27;20019;-61
2024/04/03 05:27:08;;;;;;;8.70;2.28;;;;;;;;;;5150158;27;20412;-61
2024/04/03 05:29:34;;;;;;;9.10;2.55;;;;;;;;;;5151715;27;20030;-61
2024/04/03 05:32:01;;;;;;;9.48;2.40;;;;;;;;;;5151302;27;20022;-61
2024/04/03 05:34:27;;;;;;;3.20;1.88;;;;;;;;;;5148768;27;20054;-61
2024/04/03 05:36:53;;;;;;;8.23;1.98;;;;;;;;;;5131566;27;20015;-61
2024/04/03 05:39:18;;;;;;;9.50;2.42;;;;;;;;;;5145908;27;20496;-61
2024/04/03 05:41:44;;;;;;;7.85;2.30;;;;;;;;;;5150144;27;20092;-62
2024/04/03 05:44:10;;;;;;;12.10;2.70;;;;;;;;;;5153395;27;20026;-62
2024/04/03 05:46:36;;;;;;;6.90;2.40;;;;;;;;;;5152389;27;20502;-61
2024/04/03 05:49:02;;;;;;;7.00;2.08;;;;;;;;;;5152258;27;20026;-61
2024/04/03 05:51:29;;;;;;;8.10;2.42;;;;;;;;;;5151736;27;20506;-61
2024/04/03 05:53:55;;;;;;;5.65;1.80;;;;;;;;;;5145424;27;20026;-62
2024/04/03 05:56:21;;;;;;;5.05;1.73;;;;;;;;;;5121395;27;20027;-62
2024/04/03 05:58:51;;;;;;;8.45;2.40;;;;;;;;;;5154501;27;20026;-62
2024/04/03 06:01:17;;;;;;;8.48;2.50;;;;;;;;;;5150979;27;20369;-61
2024/04/03 06:03:43;;;;;;;9.13;2.95;;;;;;;;;;5147107;27;20084;-62
2024/04/03 06:06:09;;;;;;;7.47;2.03;;;;;;;;;;5144952;27;20023;-62
2024/04/03 06:08:35;;;;;;;9.88;2.33;;;;;;;;;;5146723;27;20501;-61
2024/04/03 06:11:01;;;;;;;9.27;2.20;;;;;;;;;;5146245;27;20035;-61
2024/04/03 06:13:27;;;;;;;8.93;2.13;;;;;;;;;;5133978;27;20030;-61
2024/04/03 06:15:54;;;;;;;8.40;2.15;;;;;;;;;;5151019;27;20027;-62
2024/04/03 06:18:21;;;;;;;7.65;2.10;;;;;;;;;;5147593;27;20025;-61
2024/04/03 06:20:47;;;;;;;7.13;2.78;;;;;;;;;;5118037;27;20155;-61
2024/04/03 06:23:13;;;;;;;7.35;2.50;;;;;;;;;;5148169;27;20093;-62
2024/04/03 06:25:39;;;;;;;8.82;2.35;;;;;;;;;;5145909;27;20020;-61
2024/04/03 06:28:05;;;;;;;7.32;2.22;;;;;;;;;;5152491;27;20025;-62
2024/04/03 06:30:31;;;;;;;6.95;2.28;;;;;;;;;;5149055;27;20061;-61
2024/04/03 06:32:57;;;;;;;8.80;2.53;;;;;;;;;;5147663;27;20022;-62
2024/04/03 06:35:24;;;;;;;8.05;2.83;;;;;;;;;;5152749;27;20034;-62
2024/04/03 06:37:50;;;;;;;8.65;2.70;;;;;;;;;;5151312;27;20018;-61
2024/04/03 06:40:18;;;;;;;6.70;2.20;;;;;;;;;;5153823;27;20076;-62
2024/04/03 06:42:45;;;;;;;5.68;2.50;;;;;;;;;;5152102;27;20556;-62
2024/04/03 06:45:11;;;;;;;5.65;2.25;;;;;;;;;;5149578;27;20131;-61
2024/04/03 06:47:37;;;;;;;8.63;2.17;;;;;;;;;;5148508;27;20031;-61
2024/04/03 06:50:03;;;;;;;7.70;2.55;;;;;;;;;;5151965;27;20049;-61
2024/04/03 06:52:29;;;;;;;10.25;3.00;;;;;;;;;;5152210;27;20097;-61
2024/04/03 06:54:56;;;;;;;8.15;2.58;;;;;;;;;;5148884;27;20049;-61
2024/04/03 06:57:22;;;;;;;11.52;3.20;;;;;;;;;;5150480;27;20483;-62
2024/04/03 06:59:48;;;;;;;8.10;2.58;;;;;;;;;;5147025;27;20490;-63
2024/04/03 07:02:14;;;;;;;8.35;2.55;;;;;;;;;;5151716;27;20047;-71
2024/04/03 07:04:41;;;;;;;6.72;2.42;;;;;;;;;;5140694;27;20062;-66
2024/04/03 07:07:08;;;;;;;7.15;2.65;;;;;;;;;;5138490;27;20019;-66
2024/04/03 07:09:52;;;;;;;10.02;3.15;;;;;;;;;;5152240;27;20031;-66
2024/04/03 07:12:18;;;;;;;8.13;2.87;;;;;;;;;;5152350;27;20023;-68
2024/04/03 07:14:44;;;;;;;7.50;2.50;;;;;;;;;;5156843;27;20613;-65
2024/04/03 07:17:10;;;;;;;7.43;2.92;;;;;;;;;;5146639;27;20023;-65
2024/04/03 07:19:37;;;;;;;4.85;2.30;;;;;;;;;;5157721;27;20552;-67
2024/04/03 07:22:03;;;;;;;8.65;2.90;;;;;;;;;;5135086;27;20026;-70
2024/04/03 07:24:29;;;;;;;14.00;3.25;;;;;;;;;;5157723;27;20042;-67
2024/04/03 07:26:55;;;;;;;8.40;3.22;;;;;;;;;;5146346;27;20058;-69
2024/04/03 07:29:24;;;;;;;7.82;2.45;;;;;;;;;;5155663;27;20030;-67
2024/04/03 07:31:50;;;;;;;10.23;2.80;;;;;;;;;;5154496;27;20026;-71
2024/04/03 07:34:16;;;;;;;9.02;3.53;;;;;;;;;;5146593;27;20051;-70
2024/04/03 07:36:43;;;;;;;11.32;2.75;;;14.60;99.90;;;;;;5154536;27;20034;-62
2024/04/03 07:39:09;;;;;;;8.10;2.10;;;14.50;99.90;;;;;;5147056;27;20018;-63
2024/04/03 07:41:35;;;;;;;7.43;2.55;;;14.60;99.90;;;;;;5156639;27;20101;-65
2024/04/03 07:44:02;;;;;;;10.98;2.40;;;14.60;99.90;;;;;;5152295;27;20129;-63
2024/04/03 07:46:28;;;;;;;6.70;1.95;;;14.50;99.90;;;;;;5134277;27;20041;-62
2024/04/03 07:48:53;;;;;;;5.95;2.35;;;14.70;99.90;;;;;;5153088;27;20027;-62
2024/04/03 07:51:19;;;;;;;8.38;2.22;;;14.70;99.90;;;;;;5157166;27;20110;-60
2024/04/03 07:53:45;;;;;;;6.68;2.28;;;14.70;99.90;;;;;;5155290;27;20481;-61
2024/04/03 07:56:14;;;;;;;7.95;2.40;;;14.70;99.90;;;;;;5136713;27;20031;-61
2024/04/03 07:58:43;;;;;;;6.75;2.58;;;14.80;99.90;;;;;;5135777;27;20015;-71
2024/04/03 08:01:09;;;;;;;10.15;3.15;;;14.80;99.90;;;;;;5128464;27;20030;-71
2024/04/03 08:03:34;;;;;;;5.53;2.80;;;14.80;99.90;;;;;;5145774;27;20473;-72
2024/04/03 08:06:00;;;;;;;8.07;2.20;;;14.70;99.90;;;;;;5148354;27;20011;-63
2024/04/03 08:08:28;;;;;;;9.43;2.08;;;14.60;99.90;;;;;;5146107;27;20034;-62
2024/04/03 08:11:01;;;;;;;5.40;1.90;;;14.60;99.90;;;;;;5149437;27;20027;-70
2024/04/03 08:13:27;;;;;;;8.18;3.67;;;14.70;99.90;;;;;;5155326;27;20050;-66
2024/04/03 08:16:00;;;;;;;6.30;3.08;;;14.70;99.90;;;;;;5129075;27;20058;-70
2024/04/03 08:18:26;;;;;;;7.53;2.53;;;14.70;99.90;;;;;;5151769;27;20495;-63
2024/04/03 08:21:00;;;;;;;5.20;2.35;;;14.60;99.90;;;;;;5150784;27;20030;-64
2024/04/03 08:23:26;;;;;;;7.38;2.90;;;14.50;99.90;;;;;;5148825;27;20197;-63
2024/04/03 08:25:52;;;;;;;4.80;2.50;;;14.40;99.90;;;;;;5151273;27;20477;-63
2024/04/03 08:28:17;;;;;;;8.38;3.30;;;14.40;99.90;;;;;;5154112;27;20069;-67
2024/04/03 08:30:43;;;;;;;7.32;3.28;;;14.30;99.90;;;;;;5151089;27;20130;-61
2024/04/03 08:33:10;;;;;;;4.80;3.10;;;14.40;99.90;;;;;;5149206;27;20063;-68
2024/04/03 08:35:36;;;;;;;6.45;2.72;;;14.40;99.90;;;;;;5149807;27;20042;-67
2024/04/03 08:38:01;;;;;;;5.63;2.85;;;14.40;99.90;;;;;;5150095;27;20491;-75
2024/04/03 08:40:28;;;;;;;9.55;3.05;;;14.50;99.90;;;;;;5145142;27;20041;-62
2024/04/03 08:42:54;;;;;;;4.80;3.28;;;14.60;99.90;;;;;;5156236;27;20011;-69
2024/04/03 08:45:21;;;;;;;6.32;2.88;;;14.60;99.90;;;;;;5150856;27;20031;-74
2024/04/03 08:47:49;;;;;;;8.68;3.78;;;14.50;99.90;;;;;;5150057;27;20468;-60
2024/04/03 08:50:15;;;;;;;5.63;4.40;;;14.50;99.90;;;;;;5154736;27;20045;-69
2024/04/03 08:52:42;;;;;;;10.90;4.72;;;14.50;99.90;;;;;;5152629;27;20026;-71
2024/04/03 08:55:14;;;;;;;6.65;4.65;;;14.60;99.90;;;;;;5151951;27;20026;-66
2024/04/03 08:57:40;;;;;;;7.55;4.22;;;14.50;99.90;;;;;;5146195;27;20023;-65
2024/04/03 09:00:08;;;;;;;8.00;4.40;;;14.40;99.90;;;;;;5132489;27;20035;-72
2024/04/03 09:02:33;;;;;;;13.57;4.53;;;14.50;99.90;;;;;;5144976;27;20460;-61
2024/04/03 09:04:59;;;;;;;6.65;4.22;;;14.40;99.90;;;;;;5148091;27;20152;-60
2024/04/03 09:07:25;;;;;;;9.90;4.70;;;14.40;99.90;;;;;;5153663;27;20038;-70
2024/04/03 09:09:50;;;;;;;9.57;4.47;;;14.50;99.90;;;;;;5147186;27;20404;-66
2024/04/03 09:12:24;;;;;;;8.38;4.30;;;14.40;99.90;;;;;;5150453;27;20018;-75
2024/04/03 09:14:50;;;;;;;9.38;4.50;;;14.30;99.90;;;;;;5147382;27;20084;-65
2024/04/03 09:17:17;;;;;;;7.90;4.97;;;14.30;99.90;;;;;;5144971;27;20023;-64
2024/04/03 09:19:50;;;;;;;9.32;5.93;;;14.50;99.90;;;;;;5154307;27;20046;-70
2024/04/03 09:22:17;;;;;;;9.30;4.82;;;14.60;99.90;;;;;;5128162;27;20133;-68
2024/04/03 09:24:42;;;;;;;8.23;4.95;;;14.50;99.90;;;;;;5150495;27;20059;-69
2024/04/03 09:27:10;;;;;;;8.88;4.45;;;14.60;99.90;;;;;;5142722;27;20016;-69
2024/04/03 09:29:37;;;;;;;8.45;4.38;;;14.70;99.90;;;;;;5132430;27;20038;-69
2024/04/03 09:32:03;;;;;;;7.32;4.07;;;14.60;99.90;;;;;;5144136;27;20018;-61
2024/04/03 09:34:33;;;;;;;11.77;4.65;;;14.60;99.90;;;;;;5138737;27;20516;-58
2024/04/03 09:37:01;;;;;;;7.15;4.55;;;14.50;99.90;;;;;;5143700;27;20031;-58
2024/04/03 09:39:27;;;;;;;6.18;4.15;;;14.60;99.90;;;;;;5143356;27;20446;-57
2024/04/03 09:42:05;;;;;;;6.22;4.25;;;14.60;99.90;;;;;;5147058;27;20030;-60
2024/04/03 09:44:36;;;;;;;10.15;4.90;;;14.60;99.90;;;;;;5142762;27;20050;-61
2024/04/03 09:47:16;;;;;;;7.05;4.13;;;14.50;99.90;;;;;;5085528;27;20870;-63
2024/04/03 09:49:49;;;;;;;9.07;4.32;;;14.60;99.90;;;;;;5075750;28;20546;-68
2024/04/03 09:52:15;;;;;;;9.90;5.32;;;14.60;99.90;;;;;;5075598;28;20467;-68
2024/04/03 09:54:42;;;;;;;7.10;5.15;;;14.70;99.90;;;;;;5055691;28;20044;-68
2024/04/03 09:57:08;;;;;;;9.45;5.60;;;14.70;99.90;;;;;;5070027;28;20026;-68
2024/04/03 09:59:40;;;;;;;9.35;5.22;;;14.80;99.90;;;;;;5068200;28;20028;-67
2024/04/03 10:02:10;;;;;;;7.43;4.50;;;14.80;99.90;;;;;;5066167;28;20040;-65
2024/04/03 10:04:37;;;;;;;11.38;5.18;;;14.80;99.90;;;;;;5075108;28;20030;-67
2024/04/03 10:07:02;;;;;;;7.35;4.53;;;14.80;99.90;;;;;;5073886;28;20068;-67
2024/04/03 10:09:31;;;;;;;10.68;5.35;;;14.80;99.90;;;;;;5074198;28;20098;-73
2024/04/03 10:11:58;;;;;;;10.30;4.70;;;14.80;99.90;;;;;;5061021;28;20036;-74
2024/04/03 10:14:28;;;;;;;7.43;4.82;;;14.80;99.90;;;;;;5077806;28;20414;-73
2024/04/03 10:16:54;;;;;;;6.97;4.47;;;14.80;99.90;;;;;;5081427;28;20373;-73
2024/04/03 10:19:30;;;;;;;6.32;4.90;;;14.80;99.90;;;;;;5070564;28;20482;-71
2024/04/03 10:21:57;;;;;;;6.97;3.92;;;14.80;99.90;;;;;;5069399;28;20033;-72
2024/04/03 10:24:23;;;;;;;11.15;4.78;;;15.00;99.90;;;;;;5072893;28;20094;-73
2024/04/03 10:26:49;;;;;;;7.32;4.10;;;15.10;99.90;;;;;;5068469;28;20037;-71
2024/04/03 10:29:15;;;;;;;7.40;4.38;;;14.90;99.90;;;;;;5070663;28;20105;-71
2024/04/03 10:31:45;;;;;;;9.15;4.35;;;14.90;99.90;;;;;;5064668;28;20093;-67
2024/04/03 10:34:11;;;;;;;11.48;5.13;;;14.90;99.90;;;;;;5073061;28;20149;-72
2024/04/03 10:36:38;;;;;;;7.57;4.45;;;15.00;99.90;;;;;;5062971;28;20506;-59
2024/04/03 10:39:05;;;;;;;9.45;4.65;;;14.80;99.90;;;;;;5072348;28;20070;-61
2024/04/03 10:41:32;;;;;;;7.82;4.18;;;14.90;99.90;;;;;;5056785;28;20040;-61
2024/04/03 10:43:59;;;;;;;10.10;5.05;;;15.00;99.90;;;;;;5068609;28;20399;-64
2024/04/03 10:46:26;;;;;;;8.38;4.53;;;14.90;99.90;;;;;;5079863;28;20476;-73
2024/04/03 10:48:56;;;;;;;8.27;4.82;;;14.90;99.90;;;;;;5069798;28;20016;-68
2024/04/03 10:51:22;;;;;;;9.63;5.13;;;14.80;99.90;;;;;;5050553;28;20029;-60
2024/04/03 10:53:48;;;;;;;6.32;3.95;;;14.90;99.90;;;;;;5070144;28;20028;-61
2024/04/03 10:56:16;;;;;;;7.00;4.95;;;14.80;99.90;;;;;;5067221;28;20104;-61
2024/04/03 10:58:44;;;;;;;7.72;5.32;;;14.90;99.90;;;;;;5054300;28;20025;-61
2024/04/03 11:01:14;;;;;;;11.23;5.15;;;14.90;99.90;;;;;;5054633;28;20029;-61
2024/04/03 11:03:41;;;;;;;12.63;5.40;;;15.00;99.90;;;;;;5041214;28;20051;-60
2024/04/03 11:06:11;;;;;;;9.82;5.53;;;14.90;99.90;;;;;;5054745;28;20111;-61
2024/04/03 11:08:37;;;;;;;7.88;4.95;;;15.10;99.90;;;;;;5049539;28;20487;-61
2024/04/03 11:11:09;;;;;;;7.30;4.93;;;14.90;99.90;;;;;;5045960;28;20036;-60
2024/04/03 11:13:35;;;;;;;10.00;5.53;;;15.00;99.90;;;;;;5054563;28;20059;-60
2024/04/03 11:16:01;;;;;;;10.25;5.35;;;15.00;99.90;;;;;;5033141;28;20037;-62
2024/04/03 11:18:27;;;;;;;8.07;5.13;;;15.10;99.90;;;;;;5053216;28;20086;-62
2024/04/03 11:20:53;;;;;;;9.15;4.72;;;15.10;99.90;;;;;;5054378;28;20171;-62
2024/04/03 11:23:19;;;;;;;11.20;5.50;;;15.30;99.90;;;;;;5054172;28;20375;-61
2024/04/03 11:25:44;;;;;;;12.50;5.95;;;15.70;99.90;;;;;;5037245;28;20027;-62
2024/04/03 11:28:12;;;;;;;9.15;5.45;;;15.70;99.90;;;;;;5046400;28;20474;-61
2024/04/03 11:30:40;;;;;;;11.32;6.38;;;15.50;99.90;;;;;;5054220;28;20552;-61
2024/04/03 11:33:06;;;;;;;10.25;6.38;;;15.50;99.90;;;;;;5044996;28;20065;-62
2024/04/03 11:35:32;;;;;;;8.35;5.47;;;15.60;99.90;;;;;;5032772;28;20028;-62
2024/04/03 11:38:00;;;;;;;10.07;5.32;;;15.80;99.90;;;;;;5053806;28;20029;-61
2024/04/03 11:40:27;;;;;;;11.60;5.30;;;15.80;99.90;;;;;;5053723;28;20013;-61
2024/04/03 11:42:52;;;;;;;8.48;4.88;;;15.80;99.90;;;;;;5054293;28;20025;-60
2024/04/03 11:45:18;;;;;;;9.77;5.80;;;15.70;99.90;;;;;;5051282;28;20048;-61
2024/04/03 11:47:44;;;;;;;8.77;5.15;;;15.60;99.90;;;;;;5053465;28;20071;-61
2024/04/03 11:50:10;;;;;;;12.02;6.07;;;15.70;99.90;;;;;;5054141;28;20021;-61
2024/04/03 11:52:36;;;;;;;12.35;6.07;;;15.80;99.90;;;;;;5054098;28;20033;-62
2024/04/03 11:55:03;;;;;;;11.75;5.97;;;15.90;99.90;;;;;;5052475;28;20039;-61
2024/04/03 11:57:28;;;;;;;6.78;4.68;;;15.90;99.90;;;;;;5035691;28;20025;-61
2024/04/03 11:59:55;;;;;;;9.10;5.75;;;15.90;99.90;;;;;;5053766;28;20079;-60
2024/04/03 12:02:22;;;;;;;9.52;5.20;;;15.90;99.90;;;;;;5053637;28;20189;-60
2024/04/03 12:04:48;;;;;;;9.50;4.78;;;15.90;99.90;;;;;;5053740;28;20029;-60
2024/04/03 12:07:14;;;;;;;6.80;4.68;;;15.90;99.90;;;;;;5047290;28;20025;-61
2024/04/03 12:09:42;;;;;;;12.23;5.60;;;15.90;99.90;;;;;;5046370;28;20025;-61
2024/04/03 12:12:09;;;;;;;11.68;5.05;;;16.00;99.90;;;;;;5039528;28;20025;-61
2024/04/03 12:14:35;;;;;;;11.18;5.70;;;15.90;99.90;;;;;;5053856;28;20033;-61
2024/04/03 12:17:03;;;;;;;10.68;6.40;;;15.80;99.90;;;;;;5050987;28;20032;-61
2024/04/03 12:19:44;;;;;;;6.43;4.28;;;15.60;99.90;;;;;;5044143;28;20025;-61
2024/04/03 12:22:14;;;;;;;6.53;4.30;;;15.50;99.90;;;;;;5052176;28;20029;-61
2024/04/03 12:24:43;;;;;;;9.68;5.25;;;15.50;99.90;;;;;;5053408;28;20032;-61
2024/04/03 12:27:08;;;;;;;10.35;4.50;;;15.50;99.90;;;;;;5034826;28;20033;-61
2024/04/03 12:29:34;;;;;;;9.95;5.38;;;15.50;99.90;;;;;;5053331;28;20021;-61
2024/04/03 12:32:01;;;;;;;7.03;5.00;;;15.40;99.90;;;;;;5051814;28;20033;-61
2024/04/03 12:34:26;;;;;;;8.93;4.78;;;15.30;99.90;;;;;;5051794;28;20115;-61
2024/04/03 12:36:52;;;;;;;10.82;4.90;;;14.90;99.90;;;;;;5053007;28;20144;-61
2024/04/03 12:39:18;;;;;;;9.48;4.80;;;14.70;99.90;;;;;;5051460;28;20039;-61
2024/04/03 12:41:43;;;;;;;8.57;4.10;;;14.80;99.90;;;;;;5052451;28;20037;-68
2024/04/03 12:44:09;;;;;;;8.38;4.47;;;14.90;99.90;;;;;;5060381;28;20020;-63
2024/04/03 12:46:34;;;;;;;7.28;4.78;;;14.90;99.90;;;;;;5055796;28;20045;-64
2024/04/03 12:49:00;;;;;;;10.18;5.25;;;14.80;99.90;;;;;;5059871;28;20116;-64
2024/04/03 12:51:26;;;;;;;7.43;3.95;;;14.80;99.90;;;;;;5045319;28;20040;-61
2024/04/03 12:53:51;;;;;;;7.53;4.07;;;14.90;99.90;;;;;;5059277;28;20032;-61
2024/04/03 12:56:17;;;;;;;8.98;4.25;;;15.00;99.90;;;;;;5052185;28;20040;-63
2024/04/03 12:58:44;;;;;;;6.45;4.50;;;15.00;99.90;;;;;;5055954;28;20024;-70
2024/04/03 13:01:09;;;;;;;7.55;4.47;;;15.10;99.90;;;;;;5053575;28;20535;-64
2024/04/03 13:03:35;;;;;;;7.25;4.93;;;15.20;99.90;;;;;;5055119;28;20029;-67
2024/04/03 13:06:01;;;;;;;8.88;5.75;;;15.20;99.90;;;;;;5049988;28;20039;-64
2024/04/03 13:08:27;;;;;;;10.23;5.00;;;15.20;99.90;;;;;;5052775;28;20041;-64
2024/04/03 13:10:53;;;;;;;7.85;4.78;;;15.10;99.90;;;;;;5054073;28;20020;-64
2024/04/03 13:13:19;;;;;;;11.27;5.65;;;15.10;99.90;;;;;;5052136;28;20056;-64
2024/04/03 13:15:44;;;;;;;8.38;5.60;;;15.20;99.90;;;;;;5048174;28;20052;-65
2024/04/03 13:18:10;;;;;;;14.20;5.45;;;15.20;99.90;;;;;;5053209;28;20104;-65
2024/04/03 13:20:36;;;;;;;10.35;5.70;;;15.10;99.90;;;;;;5055158;28;20033;-66